Terminal Aerodrome Forecast
Issued by NWS

Home | Current Version | Previous Version | Text Only | Print | Product List | Glossary On
Versions: 1 2 3 4 5 6 7 8 9 10 11 12 13 14 15 16
000
FTUS46 KMTR 281100
TAFMRY
TAF
KMRY 281120Z 2812/2912 VRB03KT P6SM OVC006
     FM281800 28005KT P6SM SCT008
     FM282000 28008KT P6SM SKC
     FM290200 22005KT P6SM OVC006=

USA.gov is the U.S. government's official web portal to all federal, state and local government web resources and services.